createdAt,value
2019-05-03T00:02:25.959Z,57.10
2019-05-03T00:05:16.042Z,56.90
2019-05-03T00:07:49.375Z,56.80
2019-05-03T00:10:22.460Z,56.60
2019-05-03T00:12:55.302Z,56.60
2019-05-03T00:15:46.607Z,56.50
2019-05-03T00:18:22.005Z,56.50
2019-05-03T00:20:55.697Z,56.50
2019-05-03T00:23:29.630Z,56.50
2019-05-03T00:26:03.120Z,56.50
2019-05-03T00:28:36.072Z,56.60
2019-05-03T00:31:09.860Z,56.50
2019-05-03T00:33:45.193Z,56.40
2019-05-03T00:36:22.563Z,56.40
2019-05-03T00:38:58.034Z,56.30
2019-05-03T00:41:31.997Z,56.00
2019-05-03T00:44:04.410Z,55.80
2019-05-03T00:46:38.324Z,55.60
2019-05-03T00:49:12.014Z,55.50
2019-05-03T00:51:45.823Z,55.30
2019-05-03T00:54:19.598Z,55.30
2019-05-03T00:56:53.652Z,55.10
2019-05-03T00:59:29.056Z,55.00
2019-05-03T01:02:03.131Z,54.80
2019-05-03T01:04:36.947Z,54.60
2019-05-03T01:07:11.718Z,54.50
2019-05-03T01:09:44.761Z,54.40
2019-05-03T01:12:18.514Z,54.30
2019-05-03T01:14:52.182Z,54.20
2019-05-03T01:17:25.873Z,54.00
2019-05-03T01:19:59.924Z,53.80
2019-05-03T01:22:33.352Z,53.70
2019-05-03T01:25:07.404Z,53.60
2019-05-03T01:27:43.115Z,53.40
2019-05-03T01:30:16.929Z,53.20
2019-05-03T01:32:49.821Z,53.10
2019-05-03T01:35:22.591Z,52.70
2019-05-03T01:37:57.939Z,52.70
2019-05-03T01:40:32.594Z,52.50
2019-05-03T01:43:05.881Z,52.30
2019-05-03T01:45:39.647Z,52.10
2019-05-03T01:48:21.707Z,52.00
2019-05-03T01:51:13.775Z,51.80
2019-05-03T01:53:46.431Z,51.50
2019-05-03T01:56:19.425Z,51.10
2019-05-03T01:58:53.524Z,50.90
2019-05-03T02:01:35.848Z,50.80
2019-05-03T02:04:14.051Z,50.50
2019-05-03T02:06:46.678Z,50.40
2019-05-03T02:09:21.337Z,50.10
2019-05-03T02:11:53.429Z,50.00
2019-05-03T02:14:27.255Z,49.70
2019-05-03T02:17:01.661Z,49.10
2019-05-03T02:19:35.767Z,49.00
2019-05-03T02:22:08.599Z,48.90
2019-05-03T02:24:42.361Z,48.70
2019-05-03T02:27:16.030Z,48.60
2019-05-03T02:29:48.774Z,48.50
2019-05-03T02:32:23.258Z,48.20
2019-05-03T02:34:57.699Z,47.60
2019-05-03T02:37:33.053Z,47.30
2019-05-03T02:40:07.272Z,47.30
2019-05-03T02:42:40.611Z,47.10
2019-05-03T02:45:15.918Z,47.00
2019-05-03T02:47:57.831Z,46.80
2019-05-03T02:50:30.466Z,46.80
2019-05-03T02:53:05.758Z,46.60
2019-05-03T02:55:39.052Z,46.50
2019-05-03T02:58:15.711Z,46.10
2019-05-03T03:00:55.711Z,46.00
2019-05-03T03:03:30.067Z,45.60
2019-05-03T03:06:06.734Z,45.50
2019-05-03T03:08:40.674Z,45.50
2019-05-03T03:11:15.362Z,45.50
2019-05-03T03:13:48.021Z,45.30
2019-05-03T03:16:21.885Z,45.00
2019-05-03T03:18:56.473Z,44.70
2019-05-03T03:21:35.816Z,44.60
2019-05-03T03:24:17.207Z,44.10
2019-05-03T03:26:51.684Z,44.30
2019-05-03T03:29:27.717Z,43.60
2019-05-03T03:32:19.831Z,43.50
2019-05-03T03:35:03.187Z,43.60
2019-05-03T03:37:35.009Z,43.50
2019-05-03T03:40:07.925Z,42.80
2019-05-03T03:42:45.016Z,43.10
2019-05-03T03:45:17.869Z,43.10
2019-05-03T03:47:55.852Z,42.90
2019-05-03T03:50:28.631Z,42.60
2019-05-03T03:53:06.684Z,41.90
2019-05-03T03:55:45.864Z,41.70
2019-05-03T03:58:23.023Z,41.60
2019-05-03T04:00:52.367Z,41.50
2019-05-03T04:03:25.988Z,41.30
2019-05-03T04:05:59.228Z,41.50
2019-05-03T04:08:35.837Z,40.80
2019-05-03T04:11:08.428Z,40.70
2019-05-03T04:13:45.139Z,40.60
2019-05-03T04:16:25.903Z,40.40
2019-05-03T04:19:01.257Z,40.20
2019-05-03T04:21:35.829Z,39.50
2019-05-03T04:24:07.705Z,39.40
2019-05-03T04:26:41.733Z,39.60
2019-05-03T04:29:16.031Z,39.60
2019-05-03T04:31:48.908Z,39.10
2019-05-03T04:34:21.786Z,38.60
2019-05-03T04:36:55.926Z,38.00
2019-05-03T04:39:28.708Z,37.00
2019-05-03T04:42:06.297Z,37.30
2019-05-03T04:44:38.841Z,37.00
2019-05-03T04:47:11.549Z,37.10
2019-05-03T04:49:46.286Z,36.90
2019-05-03T04:52:20.919Z,37.00
2019-05-03T04:54:56.341Z,37.20
2019-05-03T04:57:40.008Z,37.50
2019-05-03T05:00:06.034Z,37.50
2019-05-03T05:02:40.477Z,37.70
2019-05-03T05:05:15.423Z,37.10
2019-05-03T05:07:48.794Z,36.70
2019-05-03T05:12:57.280Z,36.00
2019-05-03T05:15:29.015Z,36.40
2019-05-03T05:18:05.451Z,36.90
2019-05-03T05:20:37.131Z,37.10
2019-05-03T05:23:10.568Z,37.00
2019-05-03T05:25:44.693Z,37.00
2019-05-03T05:28:18.519Z,37.10
2019-05-03T05:30:54.636Z,37.00
2019-05-03T05:33:29.189Z,36.80
2019-05-03T05:36:04.723Z,36.40
2019-05-03T05:38:35.414Z,36.10
2019-05-03T05:41:07.150Z,36.20
2019-05-03T05:43:39.777Z,36.00
2019-05-03T05:46:14.508Z,36.00
2019-05-03T05:48:46.579Z,35.90
2019-05-03T05:51:18.114Z,35.90
2019-05-03T05:53:49.857Z,35.70
2019-05-03T05:56:24.944Z,35.60
2019-05-03T05:59:00.728Z,33.30
2019-05-03T06:01:36.254Z,33.70
2019-05-03T06:04:10.112Z,33.80
2019-05-03T06:06:45.014Z,34.00
2019-05-03T06:09:18.390Z,34.70
2019-05-03T06:11:52.601Z,35.00
2019-05-03T06:14:25.387Z,35.40
2019-05-03T06:16:58.256Z,35.40
2019-05-03T06:19:34.432Z,35.40
2019-05-03T06:22:08.589Z,35.40
2019-05-03T06:24:45.136Z,35.50
2019-05-03T06:27:17.551Z,35.50
2019-05-03T06:29:51.130Z,35.20
2019-05-03T06:32:25.378Z,34.30
2019-05-03T06:34:58.287Z,33.40
2019-05-03T06:37:35.419Z,33.40
2019-05-03T06:40:10.917Z,33.70
2019-05-03T06:42:52.419Z,34.00
2019-05-03T06:45:16.772Z,33.90
2019-05-03T06:47:49.995Z,34.10
2019-05-03T06:50:25.242Z,31.80
2019-05-03T06:52:54.782Z,32.60
2019-05-03T06:55:27.424Z,32.20
2019-05-03T06:58:00.080Z,32.30
2019-05-03T07:00:35.746Z,32.80
2019-05-03T07:03:08.986Z,33.30
2019-05-03T07:05:44.403Z,33.30
2019-05-03T07:08:16.837Z,33.00
2019-05-03T07:10:52.954Z,32.90
2019-05-03T07:13:25.697Z,33.10
2019-05-03T07:15:57.222Z,32.70
2019-05-03T07:18:28.687Z,32.50
2019-05-03T07:21:00.285Z,32.40
2019-05-03T07:23:34.750Z,32.50
2019-05-03T07:26:05.516Z,33.40
2019-05-03T07:28:46.840Z,33.10
2019-05-03T07:31:11.235Z,32.50
2019-05-03T07:33:44.507Z,32.50
2019-05-03T07:36:16.483Z,33.00
2019-05-03T07:38:49.189Z,33.50
2019-05-03T07:41:24.522Z,33.90
2019-05-03T07:43:55.956Z,34.30
2019-05-03T07:46:27.720Z,34.50
2019-05-03T07:49:00.259Z,34.70
2019-05-03T07:51:34.654Z,34.90
2019-05-03T07:54:05.989Z,35.00
2019-05-03T07:56:39.999Z,35.20
2019-05-03T07:59:14.895Z,35.20
2019-05-03T08:01:48.205Z,35.10
2019-05-03T08:04:20.790Z,35.10
2019-05-03T08:06:54.921Z,35.10
2019-05-03T08:09:28.074Z,35.20
2019-05-03T08:12:01.310Z,35.40
2019-05-03T08:14:35.504Z,35.60
2019-05-03T08:17:05.807Z,35.80
2019-05-03T08:19:37.232Z,35.90
2019-05-03T08:22:10.165Z,36.00
2019-05-03T08:24:41.992Z,36.20
2019-05-03T08:27:14.794Z,36.30
2019-05-03T08:29:47.708Z,36.40
2019-05-03T08:32:26.354Z,36.80
2019-05-03T08:35:00.024Z,38.10
2019-05-03T08:37:34.459Z,39.10
2019-05-03T08:40:10.543Z,43.20
2019-05-03T08:42:44.456Z,44.70
2019-05-03T08:45:18.149Z,46.70
2019-05-03T08:47:50.938Z,48.30
2019-05-03T08:50:26.239Z,49.70
2019-05-03T08:53:00.804Z,52.30
2019-05-03T08:55:32.576Z,55.00
2019-05-03T08:58:06.459Z,57.20
2019-05-03T09:00:49.396Z,65.70
2019-05-03T09:03:21.290Z,66.00
2019-05-03T09:05:56.209Z,69.60
2019-05-03T09:08:26.695Z,71.60
2019-05-03T09:10:59.567Z,74.90
2019-05-03T12:21:51.788Z,77.00
2019-05-03T12:25:02.797Z,77.00
2019-05-03T12:27:55.901Z,77.10
2019-05-03T12:33:31.402Z,77.20
2019-05-03T12:36:05.498Z,77.20
2019-05-03T12:38:38.614Z,77.40
2019-05-03T12:41:14.991Z,77.70
2019-05-03T12:43:48.831Z,77.90
2019-05-03T12:53:18.736Z,78.20
2019-05-03T12:55:51.754Z,78.20
2019-05-03T12:58:25.952Z,78.10
2019-05-03T13:07:54.736Z,78.40
2019-05-03T13:10:28.884Z,78.10
2019-05-03T13:17:02.138Z,78.60
2019-05-03T13:19:45.178Z,78.30
2019-05-03T13:22:25.349Z,79.50
2019-05-03T13:25:25.766Z,79.10
2019-05-03T13:41:54.828Z,78.80
2019-05-03T13:52:34.465Z,79.00
2019-05-03T14:05:12.409Z,79.00
2019-05-03T14:07:44.708Z,79.40
2019-05-03T14:10:18.261Z,80.10
2019-05-03T14:13:14.834Z,79.90
2019-05-03T14:15:49.490Z,79.60
2019-05-03T14:18:36.902Z,79.50
2019-05-03T14:21:10.438Z,79.60
2019-05-03T14:24:16.613Z,79.70
2019-05-03T14:38:05.908Z,79.70
2019-05-03T14:40:37.866Z,80.20
2019-05-03T14:43:10.590Z,80.10
2019-05-03T14:45:44.449Z,80.10
2019-05-03T14:58:52.796Z,79.30
2019-05-03T15:01:26.988Z,79.30
2019-05-03T15:03:59.924Z,79.60
2019-05-03T15:06:35.267Z,80.10
2019-05-03T15:09:09.489Z,80.50
2019-05-03T15:11:45.289Z,80.60
2019-05-03T15:14:18.876Z,81.30
2019-05-03T15:16:51.405Z,81.10
2019-05-03T15:19:25.403Z,81.20
2019-05-03T15:21:59.251Z,81.20
2019-05-03T15:24:34.460Z,81.20
2019-05-03T15:27:07.683Z,81.10
2019-05-03T15:29:40.429Z,80.90
2019-05-03T15:32:15.338Z,80.70
2019-05-03T15:34:49.617Z,80.60
2019-05-03T15:37:25.393Z,80.60
2019-05-03T15:39:58.927Z,80.60
2019-05-03T15:42:35.746Z,80.60
2019-05-03T15:45:28.286Z,80.60
2019-05-03T15:48:04.471Z,80.70
2019-05-03T15:50:38.535Z,80.70
2019-05-03T15:53:15.147Z,80.80
2019-05-03T15:55:49.990Z,80.90
2019-05-03T15:58:24.665Z,80.80
2019-05-03T16:00:56.964Z,80.70
2019-05-03T16:03:30.674Z,80.50
2019-05-03T16:06:04.898Z,80.60
2019-05-03T16:08:38.373Z,80.40
2019-05-03T16:11:14.687Z,80.30
2019-05-03T16:13:46.824Z,80.30
2019-05-03T16:16:21.215Z,80.30
2019-05-03T16:18:53.868Z,80.30
2019-05-03T16:21:30.343Z,80.20
2019-05-03T16:24:05.066Z,80.20
2019-05-03T16:26:39.718Z,81.00
2019-05-03T16:29:15.778Z,81.10
2019-05-03T16:31:50.069Z,81.10
2019-05-03T16:34:22.897Z,81.30
2019-05-03T16:36:55.542Z,81.20
2019-05-03T16:39:29.305Z,81.00
2019-05-03T16:42:04.255Z,80.80
2019-05-03T16:44:37.762Z,80.70
2019-05-03T16:47:10.528Z,80.90
2019-05-03T16:49:44.654Z,80.80
2019-05-03T16:52:18.960Z,80.70
2019-05-03T16:54:54.716Z,80.60
2019-05-03T16:57:29.063Z,80.60
2019-05-03T17:00:05.670Z,80.70
2019-05-03T17:02:39.203Z,80.60
2019-05-03T17:05:17.507Z,80.50
2019-05-03T17:07:52.802Z,80.40
2019-05-03T17:10:28.714Z,80.30
2019-05-03T17:13:05.390Z,80.20
2019-05-03T17:15:37.990Z,80.30
2019-05-03T17:18:10.739Z,80.40
2019-05-03T17:20:45.326Z,80.90
2019-05-03T17:23:21.306Z,81.20
2019-05-03T17:25:56.067Z,81.40
2019-05-03T17:28:28.485Z,81.50
2019-05-03T17:31:06.555Z,81.50
2019-05-03T17:33:50.754Z,81.60
2019-05-03T17:36:14.518Z,81.50
2019-05-03T17:38:49.240Z,81.20
2019-05-03T17:41:25.587Z,81.20
2019-05-03T17:43:59.526Z,81.20
2019-05-03T17:46:35.554Z,81.10
2019-05-03T17:49:09.707Z,80.90
2019-05-03T17:51:45.562Z,80.80
2019-05-03T17:54:37.337Z,80.60
2019-05-03T17:57:29.322Z,80.40
2019-05-03T18:00:05.803Z,81.00
2019-05-03T18:02:42.557Z,80.20
2019-05-03T18:05:34.577Z,80.20
2019-05-03T18:08:12.288Z,80.20
2019-05-03T18:10:47.537Z,80.40
2019-05-03T18:13:21.511Z,80.60
2019-05-03T18:15:55.515Z,80.60
2019-05-03T18:18:30.737Z,80.70
2019-05-03T18:21:04.804Z,81.00
2019-05-03T18:23:37.735Z,81.10
2019-05-03T18:26:11.396Z,81.60
2019-05-03T18:28:47.482Z,81.80
2019-05-03T18:31:20.252Z,82.10
2019-05-03T18:33:54.736Z,81.70
2019-05-03T18:36:28.685Z,81.50
2019-05-03T18:39:01.598Z,81.20
2019-05-03T18:41:35.137Z,81.00
2019-05-03T18:44:26.714Z,80.80
2019-05-03T18:47:05.678Z,81.30
2019-05-03T18:49:40.112Z,80.50
2019-05-03T18:52:16.081Z,80.30
2019-05-03T18:54:49.777Z,80.20
2019-05-03T18:57:22.585Z,80.30
2019-05-03T18:59:58.365Z,80.00
2019-05-03T19:02:33.996Z,79.90
2019-05-03T19:05:08.748Z,79.80
2019-05-03T19:07:46.990Z,79.80
2019-05-03T19:10:25.707Z,79.70
2019-05-03T19:12:59.476Z,80.20
2019-05-03T19:15:34.759Z,80.40
2019-05-03T19:18:09.761Z,80.60
2019-05-03T19:20:45.448Z,80.80
2019-05-03T19:23:18.968Z,80.50
2019-05-03T19:25:55.181Z,80.10
2019-05-03T19:28:29.116Z,79.80
2019-05-03T19:31:05.239Z,79.60
2019-05-03T19:33:38.155Z,79.30
2019-05-03T19:36:11.936Z,79.50
2019-05-03T19:38:45.636Z,78.70
2019-05-03T19:41:21.828Z,78.50
2019-05-03T19:43:55.820Z,78.30
2019-05-03T19:46:31.990Z,78.10
2019-05-03T19:49:07.176Z,77.70
2019-05-03T19:51:41.748Z,77.20
2019-05-03T19:54:16.103Z,76.90
2019-05-03T19:56:49.638Z,76.50
2019-05-03T19:59:40.468Z,76.20
2019-05-03T20:02:35.167Z,75.90
2019-05-03T20:05:28.111Z,75.60
2019-05-03T20:08:05.035Z,75.40
2019-05-03T20:10:36.867Z,75.40
2019-05-03T20:13:11.011Z,75.50
2019-05-03T20:15:46.448Z,75.50
2019-05-03T20:18:20.312Z,75.30
2019-05-03T20:20:55.315Z,75.30
2019-05-03T20:23:27.909Z,75.20
2019-05-03T20:26:00.714Z,75.20
2019-05-03T20:28:35.477Z,75.20
2019-05-03T20:31:08.999Z,75.10
2019-05-03T20:33:45.720Z,75.10
2019-05-03T20:36:18.620Z,74.90
2019-05-03T20:38:52.097Z,74.80
2019-05-03T20:41:27.523Z,74.80
2019-05-03T20:44:02.339Z,75.00
2019-05-03T20:46:55.031Z,74.80
2019-05-03T20:49:28.699Z,75.00
2019-05-03T20:52:02.481Z,75.60
2019-05-03T20:54:35.383Z,76.30
2019-05-03T20:57:09.806Z,76.70
2019-05-03T20:59:45.982Z,77.20
2019-05-03T21:02:19.150Z,77.40
2019-05-03T21:04:54.661Z,77.50
2019-05-03T21:07:27.346Z,77.40
2019-05-03T21:10:01.600Z,77.60
2019-05-03T21:12:34.678Z,77.70
2019-05-03T21:15:11.488Z,77.90
2019-05-03T21:18:04.755Z,77.90
2019-05-03T21:20:39.785Z,78.10
2019-05-03T21:23:14.759Z,78.20
2019-05-03T21:26:03.593Z,78.30
2019-05-03T21:28:25.138Z,78.30
2019-05-03T21:30:59.269Z,78.60
2019-05-03T21:33:31.905Z,79.00
2019-05-03T21:36:05.706Z,78.60
2019-05-03T21:38:40.812Z,78.50
2019-05-03T21:41:15.690Z,78.40
2019-05-03T21:43:50.414Z,78.20
2019-05-03T21:46:25.651Z,78.20
2019-05-03T21:49:00.785Z,78.20
2019-05-03T21:51:34.727Z,78.10
2019-05-03T21:54:08.755Z,77.90
2019-05-03T21:56:44.562Z,78.00
2019-05-03T21:59:17.706Z,78.00
2019-05-03T22:01:51.690Z,78.00
2019-05-03T22:04:25.356Z,77.90
2019-05-03T22:07:01.129Z,77.80
2019-05-03T22:09:36.479Z,77.90
2019-05-03T22:12:10.667Z,77.90
2019-05-03T22:14:45.618Z,77.90
2019-05-03T22:17:44.744Z,78.00
2019-05-03T22:20:26.781Z,78.00
2019-05-03T22:23:01.901Z,78.10
2019-05-03T22:25:35.795Z,78.00
2019-05-03T22:28:08.911Z,78.00
2019-05-03T22:30:45.372Z,78.10
2019-05-03T22:33:20.106Z,77.90
2019-05-03T22:36:07.944Z,77.90
2019-05-03T22:38:30.406Z,77.90
2019-05-03T22:41:05.375Z,78.10
2019-05-03T22:43:40.466Z,78.00
2019-05-03T22:46:14.644Z,78.10
2019-05-03T22:48:47.973Z,78.10
2019-05-03T22:51:24.347Z,78.10
2019-05-03T22:53:57.547Z,78.20
2019-05-03T22:56:32.134Z,78.20
2019-05-03T22:59:06.504Z,78.30
2019-05-03T23:01:40.616Z,78.40
2019-05-03T23:04:14.671Z,79.20
2019-05-03T23:06:48.196Z,78.60
2019-05-03T23:09:20.977Z,77.90
2019-05-03T23:11:56.959Z,78.70
2019-05-03T23:14:31.295Z,78.80
2019-05-03T23:17:06.799Z,78.80
2019-05-03T23:19:41.366Z,78.90
2019-05-03T23:22:19.167Z,78.80
2019-05-03T23:24:54.800Z,79.00
2019-05-03T23:27:27.528Z,79.00
2019-05-03T23:30:02.031Z,79.10
2019-05-03T23:32:35.966Z,79.80
2019-05-03T23:35:11.765Z,79.20
2019-05-03T23:37:45.684Z,79.20
2019-05-03T23:40:19.809Z,79.40
2019-05-03T23:42:54.457Z,79.50
2019-05-03T23:45:29.503Z,79.60
2019-05-03T23:48:04.670Z,79.50
2019-05-03T23:50:40.563Z,79.50
2019-05-03T23:53:15.294Z,79.60
2019-05-03T23:55:49.721Z,79.60
2019-05-03T23:58:24.725Z,79.60
